createdAt,value
2018-09-17T00:00:47.487Z,0
2018-09-17T00:01:56.126Z,0
2018-09-17T00:03:04.780Z,0
2018-09-17T00:04:13.419Z,0
2018-09-17T00:05:22.057Z,0
2018-09-17T00:06:30.696Z,0
2018-09-17T00:07:39.343Z,0
2018-09-17T00:08:47.985Z,0
2018-09-17T00:09:56.630Z,0
2018-09-17T00:11:05.269Z,0
2018-09-17T00:12:13.916Z,0
2018-09-17T00:13:22.559Z,0
2018-09-17T00:14:31.207Z,0
2018-09-17T00:15:40.116Z,0
2018-09-17T00:16:48.754Z,0
2018-09-17T00:17:57.398Z,0
2018-09-17T00:19:06.307Z,0
2018-09-17T00:20:14.958Z,0
2018-09-17T00:21:23.591Z,0
2018-09-17T00:22:32.237Z,0
2018-09-17T00:23:40.876Z,0
2018-09-17T00:24:49.527Z,0
2018-09-17T00:25:58.161Z,0
2018-09-17T00:27:06.804Z,0
2018-09-17T00:28:15.445Z,0
2018-09-17T00:29:24.099Z,0
2018-09-17T00:30:32.739Z,0
2018-09-17T00:31:41.376Z,0
2018-09-17T00:32:50.025Z,0
2018-09-17T00:33:58.658Z,0
2018-09-17T00:35:07.309Z,0
2018-09-17T00:36:15.949Z,0
2018-09-17T00:37:24.597Z,0
2018-09-17T00:38:33.230Z,0
2018-09-17T00:39:42.144Z,0
2018-09-17T00:40:50.781Z,0
2018-09-17T00:41:59.695Z,0
2018-09-17T00:43:08.328Z,0
2018-09-17T00:44:16.989Z,0
2018-09-17T00:45:25.890Z,0
2018-09-17T00:46:34.795Z,0
2018-09-17T00:47:43.429Z,0
2018-09-17T00:48:52.078Z,0
2018-09-17T00:50:00.721Z,0
2018-09-17T00:51:09.364Z,0
2018-09-17T00:52:18.282Z,0
2018-09-17T00:53:26.919Z,0
2018-09-17T00:54:36.090Z,0
2018-09-17T00:55:44.994Z,0
2018-09-17T00:56:53.645Z,0
2018-09-17T00:58:02.281Z,0
2018-09-17T00:59:10.925Z,0
2018-09-17T01:00:19.562Z,0
2018-09-17T01:01:28.212Z,0
2018-09-17T01:02:37.117Z,0
2018-09-17T01:03:45.762Z,0
2018-09-17T01:04:54.409Z,0
2018-09-17T01:06:03.055Z,0
2018-09-17T01:07:11.696Z,0
2018-09-17T01:08:20.337Z,0
2018-09-17T01:09:28.973Z,0
2018-09-17T01:10:37.614Z,0
2018-09-17T01:11:46.265Z,0
2018-09-17T01:12:54.904Z,0
2018-09-17T01:14:03.813Z,0
2018-09-17T01:15:12.454Z,0
2018-09-17T01:16:21.366Z,0
2018-09-17T01:17:30.000Z,0
2018-09-17T01:18:38.651Z,0
2018-09-17T01:19:47.560Z,0
2018-09-17T01:20:56.190Z,0
2018-09-17T01:22:04.833Z,0
2018-09-17T01:23:13.468Z,0
2018-09-17T01:24:22.119Z,0
2018-09-17T01:25:30.760Z,0
2018-09-17T01:26:39.402Z,0
2018-09-17T01:27:48.039Z,0
2018-09-17T01:28:56.683Z,0
2018-09-17T01:30:05.333Z,0
2018-09-17T01:31:13.972Z,0
2018-09-17T01:32:22.620Z,0
2018-09-17T01:33:31.278Z,0
2018-09-17T01:34:39.902Z,0
2018-09-17T01:35:48.802Z,0
2018-09-17T01:36:57.449Z,0
2018-09-17T01:38:06.345Z,0
2018-09-17T01:39:14.997Z,0
2018-09-17T01:40:23.643Z,0
2018-09-17T01:41:32.286Z,0
2018-09-17T01:42:40.918Z,0
2018-09-17T01:43:49.829Z,0
2018-09-17T01:44:58.751Z,0
2018-09-17T01:46:07.697Z,0
2018-09-17T01:47:16.316Z,0
2018-09-17T01:48:24.951Z,0
2018-09-17T01:49:33.873Z,0
2018-09-17T01:50:42.516Z,0
2018-09-17T01:51:51.164Z,0
2018-09-17T01:53:00.055Z,0
2018-09-17T01:54:08.703Z,0
2018-09-17T01:55:17.344Z,0
2018-09-17T01:56:25.995Z,0
2018-09-17T01:57:34.628Z,0
2018-09-17T01:58:43.272Z,0
2018-09-17T01:59:52.172Z,0
2018-09-17T02:01:00.824Z,0
2018-09-17T02:02:09.464Z,0
2018-09-17T02:03:18.103Z,0
2018-09-17T02:04:26.747Z,0
2018-09-17T02:05:35.387Z,0
2018-09-17T02:06:44.038Z,0
2018-09-17T02:07:52.677Z,0
2018-09-17T02:09:01.345Z,0
2018-09-17T02:10:10.320Z,0
2018-09-17T02:11:19.236Z,0
2018-09-17T02:12:28.150Z,0
2018-09-17T02:13:37.323Z,0
2018-09-17T02:14:45.954Z,0
2018-09-17T02:15:54.605Z,0
2018-09-17T02:17:03.246Z,0
2018-09-17T02:18:11.888Z,0
2018-09-17T02:19:20.525Z,0
2018-09-17T02:20:29.173Z,0
2018-09-17T02:21:37.813Z,0
2018-09-17T02:22:46.458Z,0
2018-09-17T02:23:55.105Z,0
2018-09-17T02:25:04.004Z,0
2018-09-17T02:26:12.644Z,0
2018-09-17T02:27:21.287Z,0
2018-09-17T02:28:29.933Z,0
2018-09-17T02:29:38.570Z,0
2018-09-17T02:30:47.212Z,0
2018-09-17T02:31:55.858Z,0
2018-09-17T02:33:04.506Z,0
2018-09-17T02:34:13.148Z,0
2018-09-17T02:35:21.792Z,0
2018-09-17T02:36:30.433Z,0
2018-09-17T02:37:39.079Z,0
2018-09-17T02:38:47.719Z,0
2018-09-17T02:39:56.366Z,0
2018-09-17T02:41:05.271Z,0
2018-09-17T02:42:13.916Z,0
2018-09-17T02:43:22.563Z,0
2018-09-17T02:44:31.464Z,0
2018-09-17T02:45:40.112Z,0
2018-09-17T02:46:48.746Z,0
2018-09-17T02:47:57.923Z,0
2018-09-17T02:49:06.833Z,0
2018-09-17T02:50:15.480Z,0
2018-09-17T02:51:24.127Z,0
2018-09-17T02:52:32.774Z,0
2018-09-17T02:53:41.440Z,0
2018-09-17T02:54:50.064Z,0
2018-09-17T02:55:58.700Z,0
2018-09-17T02:57:07.348Z,0
2018-09-17T02:58:15.996Z,0
2018-09-17T02:59:24.642Z,0
2018-09-17T03:00:33.291Z,0
2018-09-17T03:01:41.937Z,0
2018-09-17T03:02:50.582Z,0
2018-09-17T03:03:59.229Z,0
2018-09-17T03:05:07.875Z,0
2018-09-17T03:06:16.513Z,0
2018-09-17T03:07:25.160Z,0
2018-09-17T03:08:33.805Z,0
2018-09-17T03:09:42.715Z,0
2018-09-17T03:10:51.365Z,0
2018-09-17T03:12:00.006Z,0
2018-09-17T03:13:08.655Z,0
2018-09-17T03:14:17.306Z,0
2018-09-17T03:15:26.220Z,0
2018-09-17T03:16:35.126Z,0
2018-09-17T03:17:43.769Z,0
2018-09-17T03:18:52.410Z,0
2018-09-17T03:20:01.066Z,0
2018-09-17T03:21:09.975Z,0
2018-09-17T03:22:18.622Z,0
2018-09-17T03:23:27.256Z,0
2018-09-17T03:24:36.261Z,0
2018-09-17T03:25:44.840Z,0
2018-09-17T03:26:53.769Z,0
2018-09-17T03:28:02.405Z,0
2018-09-17T03:29:11.062Z,0
2018-09-17T03:30:19.713Z,0
2018-09-17T03:31:28.643Z,0
2018-09-17T03:32:37.554Z,0
2018-09-17T03:33:46.202Z,0
2018-09-17T03:34:55.113Z,0
2018-09-17T03:36:03.759Z,0
2018-09-17T03:37:12.408Z,0
2018-09-17T03:38:21.044Z,0
2018-09-17T03:39:29.696Z,0
2018-09-17T03:40:38.335Z,0
2018-09-17T03:41:47.264Z,0
2018-09-17T03:42:55.897Z,0
2018-09-17T03:44:04.549Z,0
2018-09-17T03:45:13.453Z,0
2018-09-17T03:46:22.139Z,0
2018-09-17T03:47:30.736Z,0
2018-09-17T03:48:39.385Z,0
2018-09-17T03:49:48.025Z,0
2018-09-17T03:50:56.684Z,0
2018-09-17T03:52:05.324Z,0
2018-09-17T03:53:13.965Z,0
2018-09-17T03:54:22.602Z,0
2018-09-17T03:55:31.243Z,0
2018-09-17T03:56:39.895Z,0
2018-09-17T03:57:48.532Z,0
2018-09-17T03:58:57.178Z,0
2018-09-17T04:00:05.819Z,0
2018-09-17T04:01:14.467Z,0
2018-09-17T04:02:23.110Z,0
2018-09-17T04:03:32.030Z,0
2018-09-17T04:04:40.662Z,0
2018-09-17T04:05:49.313Z,0
2018-09-17T04:06:57.954Z,0
2018-09-17T04:08:06.859Z,0
2018-09-17T04:09:15.494Z,0
2018-09-17T04:10:24.139Z,0
2018-09-17T04:11:32.787Z,0
2018-09-17T04:12:41.704Z,0
2018-09-17T04:13:50.344Z,0
2018-09-17T04:14:58.974Z,0
2018-09-17T04:16:07.618Z,0
2018-09-17T04:17:16.523Z,0
2018-09-17T04:18:25.169Z,0
2018-09-17T04:19:33.813Z,0
2018-09-17T04:20:42.456Z,0
2018-09-17T04:21:51.097Z,0
2018-09-17T04:23:00.002Z,0
2018-09-17T04:24:08.643Z,0
2018-09-17T04:25:17.650Z,0
2018-09-17T04:26:26.552Z,0
2018-09-17T04:27:35.199Z,0
2018-09-17T04:28:43.837Z,0
2018-09-17T04:29:52.479Z,0
2018-09-17T04:31:01.380Z,0
2018-09-17T04:32:10.018Z,0
2018-09-17T04:33:18.665Z,0
2018-09-17T04:34:27.309Z,0
2018-09-17T04:35:35.955Z,0
2018-09-17T04:36:44.594Z,0
2018-09-17T04:37:53.242Z,0
2018-09-17T04:39:01.883Z,0
2018-09-17T04:40:10.525Z,0
2018-09-17T04:41:19.165Z,0
2018-09-17T04:42:28.084Z,0
2018-09-17T04:43:36.724Z,0
2018-09-17T04:44:45.368Z,0
2018-09-17T04:45:54.269Z,0
2018-09-17T04:47:02.916Z,0
2018-09-17T04:48:11.554Z,0
2018-09-17T04:49:20.201Z,0
2018-09-17T04:50:28.847Z,0
2018-09-17T04:51:37.483Z,0
2018-09-17T04:52:46.123Z,0
2018-09-17T04:53:54.763Z,0
2018-09-17T04:55:03.410Z,0
2018-09-17T04:56:12.044Z,0
2018-09-17T04:57:20.709Z,0
2018-09-17T04:58:29.597Z,0
2018-09-17T04:59:38.243Z,0
2018-09-17T05:00:46.880Z,0
2018-09-17T05:01:55.527Z,0
2018-09-17T05:03:04.689Z,0
2018-09-17T05:04:13.335Z,0
2018-09-17T05:05:21.977Z,0
2018-09-17T05:06:30.621Z,5
2018-09-17T05:07:39.525Z,5
2018-09-17T05:08:48.163Z,5
2018-09-17T05:09:56.815Z,5
2018-09-17T05:11:05.456Z,5
2018-09-17T05:12:14.099Z,5
2018-09-17T05:13:23.502Z,5
2018-09-17T05:14:31.917Z,5
2018-09-17T05:15:40.565Z,5
2018-09-17T05:16:49.903Z,10
2018-09-17T05:17:58.810Z,10
2018-09-17T05:19:07.708Z,10
2018-09-17T05:20:16.357Z,10
2018-09-17T05:21:24.995Z,10
2018-09-17T05:22:33.640Z,15
2018-09-17T05:23:42.282Z,15
2018-09-17T05:24:50.925Z,15
2018-09-17T05:25:59.566Z,15
2018-09-17T05:27:08.204Z,15
2018-09-17T05:28:17.124Z,15
2018-09-17T05:29:25.767Z,20
2018-09-17T05:30:34.675Z,20
2018-09-17T05:31:43.313Z,20
2018-09-17T05:32:51.959Z,20
2018-09-17T05:34:00.653Z,25
2018-09-17T05:35:09.669Z,25
2018-09-17T05:36:18.536Z,25
2018-09-17T05:37:27.451Z,25
2018-09-17T05:38:36.092Z,30
2018-09-17T05:39:44.740Z,30
2018-09-17T05:40:53.379Z,30
2018-09-17T05:42:02.024Z,35
2018-09-17T05:43:10.667Z,35
2018-09-17T05:44:19.656Z,35
2018-09-17T05:45:28.242Z,40
2018-09-17T05:46:36.881Z,40
2018-09-17T05:47:45.524Z,40
2018-09-17T05:48:54.832Z,45
2018-09-17T05:50:03.479Z,45
2018-09-17T05:51:12.116Z,45
2018-09-17T05:52:20.758Z,45
2018-09-17T05:53:29.401Z,45
2018-09-17T05:54:38.048Z,45
2018-09-17T05:55:46.948Z,45
2018-09-17T05:56:55.596Z,45
2018-09-17T05:58:04.236Z,45
2018-09-17T05:59:12.884Z,45
2018-09-17T06:00:21.522Z,45
2018-09-17T06:01:30.162Z,45
2018-09-17T06:02:38.804Z,50
2018-09-17T06:03:47.442Z,50
2018-09-17T06:04:56.089Z,50
2018-09-17T06:06:04.811Z,50
2018-09-17T06:07:13.376Z,50
2018-09-17T06:08:22.013Z,50
2018-09-17T06:09:30.675Z,50
2018-09-17T06:10:39.301Z,45
2018-09-17T06:11:48.298Z,50
2018-09-17T06:12:56.932Z,50
2018-09-17T06:14:05.586Z,50
2018-09-17T06:15:14.225Z,50
2018-09-17T06:16:22.870Z,50
2018-09-17T06:17:32.267Z,50
2018-09-17T06:18:40.835Z,50
2018-09-17T06:19:49.747Z,55
2018-09-17T06:20:58.394Z,50
2018-09-17T06:22:07.038Z,55
2018-09-17T06:23:15.735Z,50
2018-09-17T06:24:24.321Z,55
2018-09-17T06:25:32.959Z,55
2018-09-17T06:26:41.685Z,55
2018-09-17T06:27:50.510Z,60
2018-09-17T06:28:59.534Z,55
2018-09-17T06:30:08.171Z,60
2018-09-17T06:31:17.086Z,60
2018-09-17T06:32:25.719Z,60
2018-09-17T06:33:34.365Z,60
2018-09-17T06:34:43.005Z,60
2018-09-17T06:35:51.656Z,60
2018-09-17T06:37:00.299Z,65
2018-09-17T06:38:08.933Z,70
2018-09-17T06:39:17.574Z,70
2018-09-17T06:40:26.214Z,75
2018-09-17T06:41:34.922Z,80
2018-09-17T06:42:43.877Z,85
2018-09-17T06:43:52.524Z,85
2018-09-17T06:45:01.239Z,85
2018-09-17T06:46:09.810Z,85
2018-09-17T06:47:18.726Z,85
2018-09-17T06:48:27.372Z,85
2018-09-17T06:49:36.006Z,85
2018-09-17T06:50:44.658Z,85
2018-09-17T06:51:53.560Z,90
2018-09-17T06:53:02.207Z,90
2018-09-17T06:54:11.108Z,90
2018-09-17T06:55:19.758Z,90
2018-09-17T06:56:28.403Z,90
2018-09-17T06:57:37.051Z,85
2018-09-17T06:58:45.700Z,90
2018-09-17T06:59:54.334Z,90
2018-09-17T07:01:02.985Z,90
2018-09-17T07:02:11.625Z,85
2018-09-17T07:03:20.800Z,85
2018-09-17T07:04:29.432Z,90
2018-09-17T07:05:38.350Z,90
2018-09-17T07:06:46.987Z,90
2018-09-17T07:07:55.651Z,90
2018-09-17T07:09:04.286Z,90
2018-09-17T07:10:12.930Z,95
2018-09-17T07:11:21.575Z,90
2018-09-17T07:12:30.230Z,95
2018-09-17T07:13:38.873Z,95
2018-09-17T07:14:48.040Z,95
2018-09-17T07:15:56.679Z,95
2018-09-17T07:17:05.322Z,95
2018-09-17T07:18:13.976Z,95
2018-09-17T07:19:22.883Z,100
2018-09-17T07:20:31.532Z,100
2018-09-17T07:21:40.170Z,100
2018-09-17T07:22:48.823Z,100
2018-09-17T07:23:57.457Z,100
2018-09-17T07:25:06.108Z,100
2018-09-17T07:26:14.742Z,110
2018-09-17T07:27:23.658Z,105
2018-09-17T07:28:32.298Z,105
2018-09-17T07:29:40.944Z,110
2018-09-17T07:30:49.582Z,115
2018-09-17T07:31:58.224Z,115
2018-09-17T07:33:06.873Z,115
2018-09-17T07:34:15.516Z,120
2018-09-17T07:35:24.165Z,125
2018-09-17T07:36:33.145Z,125
2018-09-17T07:37:41.715Z,125
2018-09-17T07:38:50.360Z,130
2018-09-17T07:39:59.013Z,130
2018-09-17T07:41:07.647Z,135
2018-09-17T07:42:16.297Z,135
2018-09-17T07:43:24.937Z,140
2018-09-17T07:44:33.594Z,140
2018-09-17T07:45:42.236Z,145
2018-09-17T07:46:50.884Z,150
2018-09-17T07:47:59.529Z,155
2018-09-17T07:49:08.182Z,160
2018-09-17T07:50:16.823Z,160
2018-09-17T07:51:25.464Z,165
2018-09-17T07:52:34.108Z,165
2018-09-17T07:53:42.757Z,170
2018-09-17T07:54:51.410Z,170
2018-09-17T07:56:00.056Z,175
2018-09-17T07:57:08.707Z,175
2018-09-17T07:58:17.339Z,175
2018-09-17T07:59:25.994Z,180
2018-09-17T08:00:34.635Z,180
2018-09-17T08:01:43.285Z,180
2018-09-17T08:02:52.187Z,180
2018-09-17T08:04:00.840Z,180
2018-09-17T08:05:09.482Z,175
2018-09-17T08:06:18.129Z,170
2018-09-17T08:07:26.767Z,170
2018-09-17T08:08:35.415Z,170
2018-09-17T08:09:44.064Z,170
2018-09-17T08:10:52.710Z,170
2018-09-17T08:12:01.357Z,165
2018-09-17T08:13:10.000Z,165
2018-09-17T08:14:18.645Z,170
2018-09-17T08:15:27.292Z,165
2018-09-17T08:16:35.946Z,160
2018-09-17T08:17:44.584Z,155
2018-09-17T08:18:53.234Z,155
2018-09-17T08:20:01.882Z,150
2018-09-17T08:21:10.793Z,155
2018-09-17T08:22:19.433Z,145
2018-09-17T08:23:28.081Z,145
2018-09-17T08:24:36.783Z,140
2018-09-17T08:25:45.377Z,135
2018-09-17T08:26:54.283Z,135
2018-09-17T08:28:02.928Z,135
2018-09-17T08:29:11.570Z,135
2018-09-17T08:30:20.215Z,135
2018-09-17T08:31:28.866Z,135
2018-09-17T08:32:37.777Z,135
2018-09-17T08:33:46.423Z,140
2018-09-17T08:34:55.064Z,140
2018-09-17T08:36:03.980Z,145
2018-09-17T08:37:12.627Z,140
2018-09-17T08:38:21.334Z,140
2018-09-17T08:39:29.916Z,140
2018-09-17T08:40:38.562Z,145
2018-09-17T08:41:47.205Z,150
2018-09-17T08:42:55.853Z,160
2018-09-17T08:44:04.492Z,160
2018-09-17T08:45:13.141Z,160
2018-09-17T08:46:21.839Z,160
2018-09-17T08:47:30.440Z,170
2018-09-17T08:48:39.090Z,170
2018-09-17T08:49:47.998Z,175
2018-09-17T08:50:56.645Z,170
2018-09-17T08:52:05.299Z,170
2018-09-17T08:53:13.948Z,170
2018-09-17T08:54:22.611Z,175
2018-09-17T08:55:31.234Z,175
2018-09-17T08:56:39.881Z,170
2018-09-17T08:57:48.530Z,165
2018-09-17T08:58:57.172Z,160
2018-09-17T09:00:05.823Z,155
2018-09-17T09:01:14.463Z,160
2018-09-17T09:02:23.111Z,165
2018-09-17T09:03:31.754Z,175
2018-09-17T09:04:40.402Z,180
2018-09-17T09:05:49.043Z,175
2018-09-17T09:06:57.688Z,175
2018-09-17T09:08:06.339Z,175
2018-09-17T09:09:14.983Z,175
2018-09-17T09:10:23.629Z,175
2018-09-17T09:11:32.280Z,175
2018-09-17T09:12:40.923Z,180
2018-09-17T09:13:49.569Z,180
2018-09-17T09:14:58.223Z,180
2018-09-17T09:16:06.872Z,180
2018-09-17T09:17:15.776Z,185
2018-09-17T09:18:24.428Z,185
2018-09-17T09:19:33.123Z,190
2018-09-17T09:20:41.990Z,200
2018-09-17T09:21:50.899Z,200
2018-09-17T09:22:59.544Z,200
2018-09-17T09:24:08.187Z,190
2018-09-17T09:25:16.834Z,190
2018-09-17T09:26:25.921Z,190
2018-09-17T09:27:34.837Z,190
2018-09-17T09:28:43.754Z,190
2018-09-17T09:29:52.399Z,190
2018-09-17T09:31:01.401Z,190
2018-09-17T09:32:10.047Z,200
2018-09-17T09:33:18.694Z,195
2018-09-17T09:34:27.334Z,195
2018-09-17T09:35:35.987Z,190
2018-09-17T09:36:44.633Z,185
2018-09-17T09:37:53.583Z,180
2018-09-17T09:39:02.312Z,180
2018-09-17T09:40:10.961Z,175
2018-09-17T09:41:19.607Z,175
2018-09-17T09:42:28.254Z,170
2018-09-17T09:43:36.904Z,165
2018-09-17T09:44:45.547Z,160
2018-09-17T09:45:54.193Z,155
2018-09-17T09:47:02.841Z,160
2018-09-17T09:48:11.496Z,155
2018-09-17T09:49:20.415Z,155
2018-09-17T09:50:29.318Z,155
2018-09-17T09:51:37.969Z,150
2018-09-17T09:52:46.947Z,150
2018-09-17T09:53:55.526Z,150
2018-09-17T09:55:04.176Z,150
2018-09-17T09:56:12.824Z,150
2018-09-17T09:57:21.475Z,150
2018-09-17T09:58:30.119Z,150
2018-09-17T09:59:38.770Z,160
2018-09-17T10:00:47.414Z,160
2018-09-17T10:01:56.059Z,160
2018-09-17T10:03:04.713Z,160
2018-09-17T10:04:13.359Z,160
2018-09-17T10:05:22.009Z,160
2018-09-17T10:06:30.914Z,165
2018-09-17T10:07:39.569Z,165
2018-09-17T10:08:48.475Z,160
2018-09-17T10:09:57.133Z,165
2018-09-17T10:11:05.772Z,165
2018-09-17T10:12:14.430Z,165
2018-09-17T10:13:23.076Z,170
2018-09-17T10:14:31.726Z,170
2018-09-17T10:15:40.365Z,170
2018-09-17T10:16:49.014Z,170
2018-09-17T10:17:57.667Z,170
2018-09-17T10:19:06.318Z,170
2018-09-17T10:20:14.972Z,175
2018-09-17T10:21:23.611Z,175
2018-09-17T10:22:32.264Z,175
2018-09-17T10:23:40.908Z,175
2018-09-17T10:24:49.564Z,175
2018-09-17T10:25:58.202Z,185
2018-09-17T10:27:06.856Z,180
2018-09-17T10:28:15.501Z,180
2018-09-17T10:29:24.161Z,185
2018-09-17T10:30:32.911Z,195
2018-09-17T10:31:41.563Z,190
2018-09-17T10:32:50.213Z,195
2018-09-17T10:33:59.130Z,195
2018-09-17T10:35:07.776Z,195
2018-09-17T10:36:16.420Z,190
2018-09-17T10:37:25.071Z,190
2018-09-17T10:38:33.713Z,190
2018-09-17T10:39:42.371Z,190
2018-09-17T10:40:51.023Z,195
2018-09-17T10:41:59.937Z,195
2018-09-17T10:43:08.581Z,195
2018-09-17T10:44:17.243Z,190
2018-09-17T10:45:25.889Z,195
2018-09-17T10:46:34.543Z,195
2018-09-17T10:47:43.184Z,195
2018-09-17T10:48:52.114Z,190
2018-09-17T10:50:00.760Z,190
2018-09-17T10:51:09.409Z,190
2018-09-17T10:52:18.313Z,190
2018-09-17T10:53:26.966Z,190
2018-09-17T10:54:35.616Z,190
2018-09-17T10:55:44.266Z,180
2018-09-17T10:56:52.918Z,185
2018-09-17T10:58:01.560Z,180
2018-09-17T10:59:10.479Z,185
2018-09-17T11:00:19.125Z,190
2018-09-17T11:01:27.783Z,190
2018-09-17T11:02:36.423Z,200
2018-09-17T11:03:45.077Z,205
2018-09-17T11:04:53.724Z,205
2018-09-17T11:06:02.379Z,210
2018-09-17T11:07:11.026Z,220
2018-09-17T11:08:19.739Z,220
2018-09-17T11:09:28.325Z,220
2018-09-17T11:10:36.978Z,225
2018-09-17T11:11:45.626Z,220
2018-09-17T11:12:54.278Z,220
2018-09-17T11:14:02.922Z,225
2018-09-17T11:15:11.836Z,230
2018-09-17T11:16:20.500Z,230
2018-09-17T11:17:29.512Z,235
2018-09-17T11:18:38.088Z,235
2018-09-17T11:19:46.774Z,230
2018-09-17T11:20:55.703Z,230
2018-09-17T11:22:04.768Z,225
2018-09-17T11:23:13.416Z,220
2018-09-17T11:24:22.064Z,220
2018-09-17T11:25:30.728Z,220
2018-09-17T11:26:39.378Z,220
2018-09-17T11:27:48.255Z,215
2018-09-17T11:28:56.900Z,215
2018-09-17T11:30:05.553Z,210
2018-09-17T11:31:14.789Z,205
2018-09-17T11:32:23.703Z,205
2018-09-17T11:33:32.352Z,200
2018-09-17T11:34:41.011Z,200
2018-09-17T11:35:49.661Z,195
2018-09-17T11:36:58.314Z,195
2018-09-17T11:38:07.236Z,195
2018-09-17T11:39:15.882Z,190
2018-09-17T11:40:24.822Z,190
2018-09-17T11:41:33.473Z,185
2018-09-17T11:42:42.128Z,190
2018-09-17T11:43:50.776Z,185
2018-09-17T11:44:59.428Z,185
2018-09-17T11:46:08.078Z,190
2018-09-17T11:47:16.739Z,185
2018-09-17T11:48:25.443Z,185
2018-09-17T11:49:34.066Z,180
2018-09-17T11:50:42.717Z,195
2018-09-17T11:51:51.365Z,200
2018-09-17T11:53:00.019Z,190
2018-09-17T11:54:09.118Z,190
2018-09-17T11:55:17.700Z,200
2018-09-17T11:56:26.608Z,200
2018-09-17T11:57:35.265Z,200
2018-09-17T11:58:43.915Z,195
2018-09-17T11:59:52.564Z,190
2018-09-17T12:01:01.219Z,185
2018-09-17T12:02:10.185Z,185
2018-09-17T12:03:18.822Z,190
2018-09-17T12:04:27.478Z,185
2018-09-17T12:05:36.116Z,185
2018-09-17T12:06:44.770Z,180
2018-09-17T12:07:53.424Z,180
2018-09-17T12:09:02.074Z,175
2018-09-17T12:10:10.728Z,175
2018-09-17T12:11:19.635Z,170
2018-09-17T12:12:28.289Z,175
2018-09-17T12:13:36.936Z,165
2018-09-17T12:14:45.600Z,160
2018-09-17T12:15:54.503Z,160
2018-09-17T12:17:03.158Z,160
2018-09-17T12:18:11.803Z,155
2018-09-17T12:19:20.466Z,155
2018-09-17T12:20:29.106Z,165
2018-09-17T12:21:37.759Z,160
2018-09-17T12:22:46.407Z,160
2018-09-17T12:23:55.396Z,165
2018-09-17T12:25:03.999Z,165
2018-09-17T12:26:12.645Z,170
2018-09-17T12:27:21.293Z,170
2018-09-17T12:28:29.941Z,170
2018-09-17T12:29:38.600Z,165
2018-09-17T12:30:47.245Z,165
2018-09-17T12:31:55.903Z,165
2018-09-17T12:33:04.556Z,165
2018-09-17T12:34:13.216Z,170
2018-09-17T12:35:21.867Z,170
2018-09-17T12:36:30.523Z,170
2018-09-17T12:37:39.168Z,170
2018-09-17T12:38:47.829Z,175
2018-09-17T12:39:56.746Z,175
2018-09-17T12:41:05.400Z,175
2018-09-17T12:42:14.042Z,175
2018-09-17T12:43:22.692Z,175
2018-09-17T12:44:31.350Z,180
2018-09-17T12:45:40.004Z,180
2018-09-17T12:46:48.660Z,180
2018-09-17T12:47:57.345Z,180
2018-09-17T12:49:06.265Z,180
2018-09-17T12:50:14.911Z,180
2018-09-17T12:51:23.572Z,180
2018-09-17T12:52:32.216Z,180
2018-09-17T12:53:40.869Z,180
2018-09-17T12:54:49.516Z,170
2018-09-17T12:55:58.175Z,170
2018-09-17T12:57:07.234Z,170
2018-09-17T12:58:16.113Z,175
2018-09-17T12:59:24.902Z,175
2018-09-17T13:00:33.593Z,175
2018-09-17T13:01:42.264Z,175
2018-09-17T13:02:50.949Z,175
2018-09-17T13:04:00.141Z,170
2018-09-17T13:05:08.876Z,170
2018-09-17T13:06:17.546Z,170
2018-09-17T13:07:26.203Z,165
2018-09-17T13:08:34.846Z,165
2018-09-17T13:09:43.779Z,155
2018-09-17T13:10:52.421Z,160
2018-09-17T13:12:01.075Z,160
2018-09-17T13:13:09.724Z,160
2018-09-17T13:14:18.385Z,160
2018-09-17T13:15:27.025Z,160
2018-09-17T13:16:35.677Z,155
2018-09-17T13:17:44.324Z,155
2018-09-17T13:18:53.253Z,150
2018-09-17T13:20:02.164Z,145
2018-09-17T13:21:11.076Z,145
2018-09-17T13:22:19.725Z,145
2018-09-17T13:23:28.373Z,150
2018-09-17T13:24:37.035Z,150
2018-09-17T13:25:45.681Z,145
2018-09-17T13:26:54.335Z,145
2018-09-17T13:28:03.397Z,145
2018-09-17T13:29:12.055Z,145
2018-09-17T13:30:20.702Z,145
2018-09-17T13:31:29.359Z,145
2018-09-17T13:32:37.999Z,145
2018-09-17T13:33:46.658Z,145
2018-09-17T13:34:55.306Z,150
2018-09-17T13:36:04.231Z,150
2018-09-17T13:37:12.869Z,150
2018-09-17T13:38:21.525Z,150
2018-09-17T13:39:30.182Z,155
2018-09-17T13:40:38.836Z,155
2018-09-17T13:41:47.489Z,160
2018-09-17T13:42:56.415Z,160
2018-09-17T13:44:05.097Z,160
2018-09-17T13:45:13.705Z,165
2018-09-17T13:46:22.363Z,165
2018-09-17T13:47:31.024Z,165
2018-09-17T13:48:39.938Z,165
2018-09-17T13:49:48.595Z,165
2018-09-17T13:50:57.513Z,165
2018-09-17T13:52:06.454Z,170
2018-09-17T13:53:15.409Z,170
2018-09-17T13:54:24.711Z,170
2018-09-17T13:55:33.355Z,170
2018-09-17T13:56:42.003Z,170
2018-09-17T13:57:50.922Z,170
2018-09-17T13:58:59.844Z,170
2018-09-17T14:00:08.768Z,170
2018-09-17T14:01:17.711Z,170
2018-09-17T14:02:26.394Z,170
2018-09-17T14:03:35.314Z,175
2018-09-17T14:04:44.215Z,175
2018-09-17T14:05:52.940Z,180
2018-09-17T14:07:01.607Z,180
2018-09-17T14:08:10.246Z,185
2018-09-17T14:09:19.447Z,185
2018-09-17T14:10:28.113Z,190
2018-09-17T14:11:37.024Z,190
2018-09-17T14:12:45.748Z,190
2018-09-17T14:13:54.780Z,190
2018-09-17T14:15:04.118Z,190
2018-09-17T14:16:12.784Z,190
2018-09-17T14:17:21.498Z,190
2018-09-17T14:18:30.118Z,190
2018-09-17T14:19:38.768Z,190
2018-09-17T14:20:47.474Z,190
2018-09-17T14:21:56.245Z,190
2018-09-17T14:23:05.020Z,190
2018-09-17T14:24:13.972Z,190
2018-09-17T14:25:22.634Z,195
2018-09-17T14:26:31.278Z,195
2018-09-17T14:27:40.027Z,195
2018-09-17T14:28:48.564Z,190
2018-09-17T14:29:57.313Z,200
2018-09-17T14:31:06.756Z,195
2018-09-17T14:32:15.764Z,190
2018-09-17T14:33:24.405Z,190
2018-09-17T14:34:33.082Z,190
2018-09-17T14:35:42.205Z,190
2018-09-17T14:36:50.751Z,190
2018-09-17T14:37:59.428Z,190
2018-09-17T14:39:08.335Z,185
2018-09-17T14:40:17.539Z,185
2018-09-17T14:41:26.188Z,190
2018-09-17T14:42:34.824Z,185
2018-09-17T14:43:44.051Z,185
2018-09-17T14:44:52.849Z,175
2018-09-17T14:46:01.552Z,175
2018-09-17T14:47:10.157Z,175
2018-09-17T14:48:19.065Z,175
2018-09-17T14:49:27.732Z,175
2018-09-17T14:50:36.384Z,175
2018-09-17T14:51:45.028Z,170
2018-09-17T14:52:53.971Z,170
2018-09-17T14:54:02.638Z,165
2018-09-17T14:55:11.290Z,170
2018-09-17T14:56:20.213Z,160
2018-09-17T14:57:28.863Z,155
2018-09-17T14:58:37.516Z,155
2018-09-17T14:59:46.188Z,150
2018-09-17T15:00:54.824Z,150
2018-09-17T15:02:03.490Z,145
2018-09-17T15:03:12.122Z,140
2018-09-17T15:04:22.170Z,135
2018-09-17T15:05:31.128Z,130
2018-09-17T15:06:40.012Z,130
2018-09-17T15:07:49.002Z,125
2018-09-17T15:08:57.628Z,120
2018-09-17T15:10:06.366Z,120
2018-09-17T15:11:14.949Z,115
2018-09-17T15:12:23.586Z,110
2018-09-17T15:13:32.240Z,110
2018-09-17T15:14:41.463Z,110
2018-09-17T15:15:50.086Z,110
2018-09-17T15:16:58.753Z,105
2018-09-17T15:18:07.399Z,105
2018-09-17T15:19:16.332Z,105
2018-09-17T15:20:25.078Z,105
2018-09-17T15:21:33.610Z,105
2018-09-17T15:22:42.271Z,105
2018-09-17T15:23:50.971Z,105
2018-09-17T15:24:59.567Z,105
2018-09-17T15:26:08.226Z,105
2018-09-17T15:27:17.165Z,105
2018-09-17T15:28:26.546Z,105
2018-09-17T15:29:34.915Z,100
2018-09-17T15:30:43.561Z,100
2018-09-17T15:31:52.212Z,100
2018-09-17T15:33:01.120Z,100
2018-09-17T15:34:09.876Z,100
2018-09-17T15:35:18.852Z,100
2018-09-17T15:36:27.494Z,95
2018-09-17T15:37:36.156Z,95
2018-09-17T15:38:44.802Z,95
2018-09-17T15:39:53.721Z,95
2018-09-17T15:41:02.419Z,95
2018-09-17T15:42:11.020Z,90
2018-09-17T15:43:19.668Z,90
2018-09-17T15:44:28.823Z,90
2018-09-17T15:45:37.383Z,90
2018-09-17T15:46:46.143Z,85
2018-09-17T15:47:54.691Z,85
2018-09-17T15:49:03.348Z,85
2018-09-17T15:50:12.646Z,85
2018-09-17T15:51:21.199Z,85
2018-09-17T15:52:29.855Z,85
2018-09-17T15:53:38.500Z,80
2018-09-17T15:54:47.429Z,80
2018-09-17T15:55:56.182Z,80
2018-09-17T15:57:04.731Z,80
2018-09-17T15:58:13.958Z,80
2018-09-17T15:59:22.586Z,80
2018-09-17T16:00:31.231Z,75
2018-09-17T16:01:39.885Z,75
2018-09-17T16:02:48.541Z,75
2018-09-17T16:03:57.194Z,75
2018-09-17T16:05:05.842Z,75
2018-09-17T16:06:14.493Z,75
2018-09-17T16:07:23.142Z,75
2018-09-17T16:08:31.800Z,70
2018-09-17T16:09:40.446Z,75
2018-09-17T16:10:49.098Z,70
2018-09-17T16:11:57.750Z,70
2018-09-17T16:13:06.393Z,70